createdAt,value
2023-03-23T15:58:22.372Z,10.25
2023-03-23T16:00:51.956Z,7.50
2023-03-23T16:03:25.182Z,11.18
2023-03-23T16:05:51.981Z,10.90
2023-03-23T16:08:18.494Z,10.85
2023-03-23T16:10:45.130Z,11.23
2023-03-23T16:13:11.835Z,10.68
2023-03-23T16:15:39.941Z,13.02
2023-03-23T16:18:06.915Z,13.52
2023-03-23T16:20:33.746Z,12.15
2023-03-23T16:23:01.085Z,13.50
2023-03-23T16:25:27.631Z,10.57
2023-03-23T16:27:54.522Z,10.98
2023-03-23T16:30:25.632Z,16.88
2023-03-23T16:32:55.418Z,14.35
2023-03-23T16:35:23.783Z,12.70
2023-03-23T16:38:08.309Z,13.48
2023-03-23T16:40:36.881Z,11.43
2023-03-23T16:43:08.405Z,12.18
2023-03-23T16:45:43.142Z,9.85
2023-03-23T16:48:10.944Z,16.33
2023-03-23T16:50:38.175Z,15.07
2023-03-23T16:53:06.669Z,10.77
2023-03-23T16:55:33.694Z,12.38
2023-03-23T16:58:15.358Z,13.57
2023-03-23T17:00:45.638Z,12.15
2023-03-23T17:03:13.351Z,11.63
2023-03-23T17:05:40.178Z,11.57
2023-03-23T17:08:07.298Z,11.88
2023-03-23T17:10:33.822Z,13.57
2023-03-23T17:13:00.405Z,12.73
2023-03-23T17:15:26.928Z,10.10
2023-03-23T17:17:55.037Z,13.05
2023-03-23T17:20:22.268Z,9.80
2023-03-23T17:22:48.968Z,13.82
2023-03-23T17:25:15.687Z,13.75
2023-03-23T17:27:42.757Z,12.75
2023-03-23T17:30:10.931Z,11.57
2023-03-23T17:32:38.402Z,12.00
2023-03-23T17:35:06.475Z,9.10
2023-03-23T17:37:33.385Z,14.40
2023-03-23T17:40:00.171Z,13.65
2023-03-23T17:42:27.182Z,12.45
2023-03-23T17:44:53.903Z,11.73
2023-03-23T17:47:20.563Z,10.90
2023-03-23T17:49:47.860Z,11.18
2023-03-23T17:52:14.561Z,10.23
2023-03-23T17:54:41.206Z,9.70
2023-03-23T17:57:07.784Z,11.90
2023-03-23T17:59:34.422Z,13.50
2023-03-23T18:02:01.023Z,8.90
2023-03-23T18:04:27.681Z,10.65
2023-03-23T18:06:56.375Z,11.85
2023-03-23T18:09:23.410Z,11.30
2023-03-23T18:11:49.980Z,7.80
2023-03-23T18:14:16.592Z,11.88
2023-03-23T18:16:43.254Z,11.35
2023-03-23T18:19:10.124Z,9.00
2023-03-23T18:21:36.576Z,8.80
2023-03-23T18:24:03.600Z,11.00
2023-03-23T18:26:30.352Z,13.27
2023-03-23T18:28:56.960Z,9.85
2023-03-23T18:31:23.940Z,9.77
2023-03-23T18:33:51.558Z,10.73
2023-03-23T18:36:20.798Z,9.77
2023-03-23T18:38:48.727Z,10.93
2023-03-23T18:41:16.283Z,9.30
2023-03-23T18:43:43.457Z,6.50
2023-03-23T18:46:10.250Z,6.63
2023-03-23T18:48:37.530Z,9.80
2023-03-23T18:51:04.478Z,9.25
2023-03-23T18:53:31.549Z,9.57
2023-03-23T18:56:07.438Z,8.40
2023-03-23T18:58:34.160Z,8.93
2023-03-23T19:01:07.109Z,7.20
2023-03-23T19:03:35.199Z,10.25
2023-03-23T19:06:02.314Z,8.05
2023-03-23T19:08:29.567Z,10.77
2023-03-23T19:11:02.425Z,6.63
2023-03-23T19:13:31.230Z,8.88
2023-03-23T19:15:58.005Z,8.20
2023-03-23T19:18:24.460Z,6.57
2023-03-23T19:21:13.464Z,7.03
2023-03-23T19:23:41.738Z,7.60
2023-03-23T19:26:08.412Z,9.07
2023-03-23T19:31:05.030Z,9.00
2023-03-23T19:33:31.519Z,9.75
2023-03-23T19:36:09.289Z,10.52
2023-03-23T19:38:38.249Z,8.20
2023-03-23T19:41:05.834Z,7.07
2023-03-23T19:43:32.829Z,5.68
2023-03-23T19:46:00.720Z,6.03
2023-03-23T19:48:27.319Z,8.93
2023-03-23T19:50:55.784Z,6.35
2023-03-23T19:53:23.112Z,6.20
2023-03-23T19:55:50.599Z,6.85
2023-03-23T19:58:17.373Z,5.65
2023-03-23T20:00:45.289Z,5.65
2023-03-23T20:03:12.561Z,7.63
2023-03-23T20:05:40.750Z,6.35
2023-03-23T20:08:09.808Z,6.03
2023-03-23T20:10:36.942Z,6.28
2023-03-23T20:13:06.362Z,7.35
2023-03-23T20:15:33.357Z,5.00
2023-03-23T20:18:00.589Z,6.63
2023-03-23T20:20:28.301Z,7.45
2023-03-23T20:22:57.381Z,6.28
2023-03-23T20:25:24.937Z,5.45
2023-03-23T20:27:51.652Z,5.15
2023-03-23T20:30:18.790Z,6.53
2023-03-23T20:32:46.448Z,4.55
2023-03-23T20:35:14.745Z,5.10
2023-03-23T20:37:41.596Z,4.88
2023-03-23T20:40:14.666Z,6.60
2023-03-23T20:42:44.095Z,5.20
2023-03-23T20:45:13.037Z,3.55
2023-03-23T20:47:41.135Z,5.20
2023-03-23T20:50:10.085Z,4.22
2023-03-23T20:52:36.979Z,4.55
2023-03-23T20:55:04.548Z,5.32
2023-03-23T20:57:31.130Z,4.95
2023-03-23T20:59:58.026Z,4.25
2023-03-23T21:02:29.762Z,4.20
2023-03-23T21:04:58.106Z,5.68
2023-03-23T21:07:27.432Z,3.85
2023-03-23T21:09:53.932Z,4.05
2023-03-23T21:12:20.406Z,4.30
2023-03-23T21:14:47.788Z,4.47
2023-03-23T21:17:14.499Z,5.47
2023-03-23T21:19:41.306Z,4.90
2023-03-23T21:22:09.654Z,3.85
2023-03-23T21:24:38.522Z,6.72
2023-03-23T21:27:05.390Z,4.15
2023-03-23T21:29:32.736Z,4.32
2023-03-23T21:34:28.693Z,3.03
2023-03-23T21:36:55.427Z,3.47
2023-03-23T21:39:22.472Z,4.00
2023-03-23T21:41:49.748Z,3.88
2023-03-23T21:44:18.104Z,4.35
2023-03-23T21:46:45.345Z,3.75
2023-03-23T21:49:14.112Z,3.47
2023-03-23T21:51:41.665Z,4.85
2023-03-23T21:54:09.994Z,2.22
2023-03-23T21:56:36.910Z,3.35
2023-03-23T21:59:04.735Z,2.97
2023-03-23T22:01:31.488Z,4.82
2023-03-23T22:03:58.215Z,2.30
2023-03-23T22:06:30.962Z,2.88
2023-03-23T22:08:57.505Z,3.92
2023-03-23T22:11:26.692Z,2.63
2023-03-23T22:13:55.115Z,4.00
2023-03-23T22:16:22.501Z,3.75
2023-03-23T22:18:51.311Z,4.05
2023-03-23T22:21:19.871Z,2.20
2023-03-23T22:23:46.717Z,3.20
2023-03-23T22:26:15.389Z,2.97
2023-03-23T22:28:43.364Z,3.00
2023-03-23T22:31:19.657Z,4.53
2023-03-23T22:33:47.674Z,2.35
2023-03-23T22:36:15.438Z,2.65
2023-03-23T22:38:44.371Z,4.18
2023-03-23T22:41:17.658Z,3.92
2023-03-23T22:43:44.916Z,2.97
2023-03-23T22:46:11.481Z,2.53
2023-03-23T22:48:38.213Z,2.30
2023-03-23T22:51:04.876Z,2.47
2023-03-23T22:53:31.690Z,2.90
2023-03-23T22:55:58.618Z,2.22
2023-03-23T22:58:26.842Z,3.35
2023-03-23T23:01:02.762Z,2.15
2023-03-23T23:03:30.422Z,2.28
2023-03-23T23:05:58.482Z,2.90
2023-03-23T23:08:27.397Z,2.63
2023-03-23T23:10:56.105Z,2.40
2023-03-23T23:13:23.880Z,1.92
2023-03-23T23:15:53.118Z,2.83
2023-03-23T23:18:20.749Z,2.65
2023-03-23T23:20:52.376Z,3.03
2023-03-23T23:23:19.136Z,4.20
2023-03-23T23:25:45.912Z,2.17
2023-03-23T23:28:13.065Z,2.08
2023-03-23T23:30:39.811Z,1.90
2023-03-23T23:33:09.320Z,2.28
2023-03-23T23:35:37.894Z,3.30
2023-03-23T23:38:06.896Z,2.13
2023-03-23T23:40:35.293Z,1.48
2023-03-23T23:43:03.488Z,1.60
2023-03-23T23:45:30.302Z,2.00
2023-03-23T23:47:57.792Z,2.47
2023-03-23T23:50:24.819Z,2.22
2023-03-23T23:52:52.310Z,2.35
2023-03-23T23:55:20.118Z,1.95
2023-03-23T23:57:48.226Z,2.47
